createdAt,value
2019-01-12T00:00:09.997Z,1018.30
2019-01-12T00:01:09.965Z,1018.32
2019-01-12T00:02:09.899Z,1018.29
2019-01-12T00:03:09.885Z,1018.31
2019-01-12T00:04:09.821Z,1018.29
2019-01-12T00:05:09.771Z,1018.31
2019-01-12T00:06:09.727Z,1018.31
2019-01-12T00:07:09.679Z,1018.32
2019-01-12T00:08:09.657Z,1018.27
2019-01-12T00:09:09.600Z,1018.27
2019-01-12T00:10:09.557Z,1018.25
2019-01-12T00:11:09.510Z,1018.23
2019-01-12T00:12:09.470Z,1018.23
2019-01-12T00:13:09.443Z,1018.21
2019-01-12T00:14:09.375Z,1018.26
2019-01-12T00:15:09.329Z,1018.29
2019-01-12T00:16:09.290Z,1018.22
2019-01-12T00:17:09.276Z,1018.21
2019-01-12T00:18:09.207Z,1018.26
2019-01-12T00:19:09.181Z,1018.27
2019-01-12T00:20:09.113Z,1018.25
2019-01-12T00:21:09.077Z,1018.23
2019-01-12T00:22:09.057Z,1018.23
2019-01-12T00:23:08.986Z,1018.21
2019-01-12T00:24:08.944Z,1018.23
2019-01-12T00:25:08.916Z,1018.23
2019-01-12T00:26:08.852Z,1018.20
2019-01-12T00:27:08.804Z,1018.20
2019-01-12T00:28:08.792Z,1018.19
2019-01-12T00:29:08.727Z,1018.20
2019-01-12T00:30:08.693Z,1018.23
2019-01-12T00:31:08.636Z,1018.24
2019-01-12T00:32:08.591Z,1018.23
2019-01-12T00:33:08.575Z,1018.21
2019-01-12T00:34:08.499Z,1018.14
2019-01-12T00:35:08.463Z,1018.19
2019-01-12T00:36:08.420Z,1018.17
2019-01-12T00:37:08.394Z,1018.17
2019-01-12T00:38:08.325Z,1018.15
2019-01-12T00:39:08.282Z,1018.14
2019-01-12T00:40:08.244Z,1018.14
2019-01-12T00:41:08.201Z,1018.13
2019-01-12T00:42:16.764Z,1018.12
2019-01-12T00:43:08.108Z,1018.09
2019-01-12T00:44:08.092Z,1018.13
2019-01-12T00:45:08.028Z,1018.10
2019-01-12T00:46:07.982Z,1018.09
2019-01-12T00:47:07.991Z,1018.14
2019-01-12T00:48:07.897Z,1018.12
2019-01-12T00:49:07.851Z,1018.13
2019-01-12T00:50:07.806Z,1018.10
2019-01-12T00:51:07.760Z,1018.06
2019-01-12T00:52:07.725Z,1018.11
2019-01-12T00:53:07.702Z,1018.07
2019-01-12T00:54:07.643Z,1018.10
2019-01-12T00:55:07.605Z,1018.10
2019-01-12T00:56:07.540Z,1018.10
2019-01-12T00:57:07.529Z,1018.06
2019-01-12T00:58:07.457Z,1018.08
2019-01-12T00:59:07.439Z,1018.14
2019-01-12T01:00:07.389Z,1018.10
2019-01-12T01:01:07.342Z,1018.07
2019-01-12T01:02:07.291Z,1018.06
2019-01-12T01:03:07.251Z,1018.08
2019-01-12T01:04:07.226Z,1018.12
2019-01-12T01:05:07.172Z,1018.05
2019-01-12T01:06:07.105Z,1018.09
2019-01-12T01:07:07.058Z,1018.07
2019-01-12T01:08:07.021Z,1018.11
2019-01-12T01:09:06.997Z,1018.09
2019-01-12T01:10:06.934Z,1018.10
2019-01-12T01:11:06.893Z,1018.13
2019-01-12T01:12:06.839Z,1018.10
2019-01-12T01:13:06.828Z,1018.13
2019-01-12T01:14:06.777Z,1018.13
2019-01-12T01:15:06.708Z,1018.08
2019-01-12T01:16:06.669Z,1018.09
2019-01-12T01:17:06.635Z,1018.05
2019-01-12T01:18:06.572Z,1018.05
2019-01-12T01:19:06.544Z,1018.04
2019-01-12T01:20:06.531Z,1018.04
2019-01-12T01:21:06.477Z,1018.06
2019-01-12T01:22:06.407Z,1018.11
2019-01-12T01:23:06.384Z,1018.09
2019-01-12T01:24:06.333Z,1018.14
2019-01-12T01:25:06.308Z,1018.11
2019-01-12T01:26:06.231Z,1018.09
2019-01-12T01:27:16.313Z,1018.12
2019-01-12T01:28:06.172Z,1018.13
2019-01-12T01:29:06.092Z,1018.16
2019-01-12T01:30:06.085Z,1018.11
2019-01-12T01:31:06.017Z,1018.11
2019-01-12T01:32:05.978Z,1018.12
2019-01-12T01:33:05.928Z,1018.15
2019-01-12T01:34:05.867Z,1018.12
2019-01-12T01:35:05.879Z,1018.14
2019-01-12T01:36:05.790Z,1018.16
2019-01-12T01:37:05.736Z,1018.18
2019-01-12T01:38:05.703Z,1018.14
2019-01-12T01:39:05.662Z,1018.16
2019-01-12T01:40:05.606Z,1018.15
2019-01-12T01:41:05.601Z,1018.12
2019-01-12T01:42:05.549Z,1018.15
2019-01-12T01:43:05.473Z,1018.13
2019-01-12T01:44:05.434Z,1018.15
2019-01-12T01:45:05.391Z,1018.15
2019-01-12T01:46:05.383Z,1018.13
2019-01-12T01:47:05.319Z,1018.20
2019-01-12T01:48:05.253Z,1018.17
2019-01-12T01:49:05.218Z,1018.18
2019-01-12T01:50:05.193Z,1018.16
2019-01-12T01:51:05.123Z,1018.18
2019-01-12T01:52:05.104Z,1018.19
2019-01-12T01:53:05.040Z,1018.16
2019-01-12T01:54:05.020Z,1018.15
2019-01-12T01:55:04.967Z,1018.12
2019-01-12T01:56:04.926Z,1018.11
2019-01-12T01:57:04.884Z,1018.12
2019-01-12T01:58:04.845Z,1018.14
2019-01-12T01:59:04.779Z,1018.07
2019-01-12T02:00:04.734Z,1018.04
2019-01-12T02:01:04.710Z,1018.06
2019-01-12T02:02:04.692Z,1018.09
2019-01-12T02:03:04.600Z,1018.08
2019-01-12T02:04:04.573Z,1018.06
2019-01-12T02:05:04.514Z,1018.09
2019-01-12T02:06:04.482Z,1018.03
2019-01-12T02:07:04.429Z,1018.03
2019-01-12T02:08:04.405Z,1018.01
2019-01-12T02:09:04.333Z,1017.99
2019-01-12T02:10:04.305Z,1017.98
2019-01-12T02:11:04.290Z,1017.98
2019-01-12T02:12:04.247Z,1017.98
2019-01-12T02:13:04.207Z,1017.98
2019-01-12T02:14:04.165Z,1017.95
2019-01-12T02:15:04.081Z,1017.92
2019-01-12T02:16:04.043Z,1017.96
2019-01-12T02:17:03.978Z,1017.97
2019-01-12T02:18:03.965Z,1017.91
2019-01-12T02:19:03.929Z,1017.89
2019-01-12T02:20:03.855Z,1017.88
2019-01-12T02:21:03.808Z,1017.91
2019-01-12T02:22:03.792Z,1017.92
2019-01-12T02:23:03.725Z,1017.88
2019-01-12T02:24:03.712Z,1017.83
2019-01-12T02:25:03.657Z,1017.87
2019-01-12T02:26:03.640Z,1017.89
2019-01-12T02:27:03.554Z,1017.89
2019-01-12T02:28:03.506Z,1017.91
2019-01-12T02:29:03.476Z,1017.90
2019-01-12T02:30:03.449Z,1017.92
2019-01-12T02:31:03.373Z,1017.89
2019-01-12T02:32:03.354Z,1017.92
2019-01-12T02:33:03.302Z,1017.93
2019-01-12T02:34:03.278Z,1017.91
2019-01-12T02:35:03.195Z,1017.94
2019-01-12T02:36:03.152Z,1017.86
2019-01-12T02:37:03.119Z,1017.88
2019-01-12T02:38:03.063Z,1017.89
2019-01-12T02:39:03.016Z,1017.85
2019-01-12T02:40:03.017Z,1017.82
2019-01-12T02:41:02.946Z,1017.87
2019-01-12T02:42:02.899Z,1017.81
2019-01-12T02:43:02.853Z,1017.80
2019-01-12T02:44:02.797Z,1017.79
2019-01-12T02:45:02.788Z,1017.82
2019-01-12T02:46:02.732Z,1017.77
2019-01-12T02:47:02.687Z,1017.76
2019-01-12T02:48:02.643Z,1017.73
2019-01-12T02:49:02.589Z,1017.74
2019-01-12T02:50:02.577Z,1017.72
2019-01-12T02:51:02.517Z,1017.68
2019-01-12T02:52:02.454Z,1017.67
2019-01-12T02:53:02.420Z,1017.66
2019-01-12T02:54:02.374Z,1017.59
2019-01-12T02:55:08.615Z,1017.65
2019-01-12T02:56:02.312Z,1017.60
2019-01-12T02:57:02.243Z,1017.65
2019-01-12T02:58:02.184Z,1017.59
2019-01-12T02:59:02.150Z,1017.59
2019-01-12T03:00:02.121Z,1017.61
2019-01-12T03:01:02.089Z,1017.60
2019-01-12T03:02:02.018Z,1017.56
2019-01-12T03:03:01.956Z,1017.58
2019-01-12T03:04:01.910Z,1017.58
2019-01-12T03:05:01.918Z,1017.58
2019-01-12T03:06:01.873Z,1017.53
2019-01-12T03:07:01.805Z,1017.53
2019-01-12T03:08:01.757Z,1017.57
2019-01-12T03:09:01.692Z,1017.55
2019-01-12T03:10:01.652Z,1017.54
2019-01-12T03:11:01.653Z,1017.56
2019-01-12T03:12:01.571Z,1017.52
2019-01-12T03:13:01.517Z,1017.54
2019-01-12T03:14:01.480Z,1017.57
2019-01-12T03:15:01.457Z,1017.54
2019-01-12T03:16:01.380Z,1017.51
2019-01-12T03:17:01.386Z,1017.50
2019-01-12T03:18:01.312Z,1017.48
2019-01-12T03:19:01.271Z,1017.49
2019-01-12T03:20:01.242Z,1017.50
2019-01-12T03:21:01.212Z,1017.41
2019-01-12T03:22:01.134Z,1017.45
2019-01-12T03:23:01.085Z,1017.46
2019-01-12T03:24:01.041Z,1017.43
2019-01-12T03:25:00.996Z,1017.40
2019-01-12T03:26:00.980Z,1017.38
2019-01-12T03:27:00.948Z,1017.31
2019-01-12T03:28:00.887Z,1017.36
2019-01-12T03:29:00.821Z,1017.30
2019-01-12T03:30:00.772Z,1017.32
2019-01-12T03:31:00.757Z,1017.26
2019-01-12T03:32:00.726Z,1017.25
2019-01-12T03:33:00.644Z,1017.26
2019-01-12T03:34:00.604Z,1017.21
2019-01-12T03:35:00.551Z,1017.23
2019-01-12T03:36:00.518Z,1017.24
2019-01-12T03:37:00.470Z,1017.20
2019-01-12T03:38:00.448Z,1017.22
2019-01-12T03:39:09.827Z,1017.22
2019-01-12T03:40:09.839Z,1017.21
2019-01-12T03:41:00.306Z,1017.23
2019-01-12T03:42:00.245Z,1017.19
2019-01-12T03:43:00.229Z,1017.21
2019-01-12T03:44:00.156Z,1017.19
2019-01-12T03:45:00.242Z,1017.20
2019-01-12T03:46:00.061Z,1017.17
2019-01-12T03:47:00.049Z,1017.20
2019-01-12T03:48:00.019Z,1017.15
2019-01-12T03:48:59.930Z,1017.18
2019-01-12T03:49:59.882Z,1017.18
2019-01-12T03:50:59.844Z,1017.15
2019-01-12T03:51:59.809Z,1017.14
2019-01-12T03:52:59.787Z,1017.14
2019-01-12T03:53:59.701Z,1017.10
2019-01-12T03:54:59.663Z,1017.05
2019-01-12T03:55:59.630Z,1017.09
2019-01-12T03:56:59.574Z,1017.06
2019-01-12T03:57:59.560Z,1017.12
2019-01-12T03:58:59.487Z,1017.13
2019-01-12T03:59:59.459Z,1017.11
2019-01-12T04:00:59.404Z,1017.12
2019-01-12T04:01:59.353Z,1017.13
2019-01-12T04:02:59.335Z,1017.09
2019-01-12T04:03:59.303Z,1017.05
2019-01-12T04:04:59.221Z,1017.14
2019-01-12T04:05:59.187Z,1017.04
2019-01-12T04:06:59.218Z,1017.10
2019-01-12T04:07:59.083Z,1017.11
2019-01-12T04:08:59.056Z,1017.05
2019-01-12T04:09:59.037Z,1017.02
2019-01-12T04:10:59.011Z,1017.04
2019-01-12T04:11:58.920Z,1017.01
2019-01-12T04:12:58.910Z,1016.98
2019-01-12T04:13:58.833Z,1017.01
2019-01-12T04:14:58.790Z,1017.04
2019-01-12T04:15:58.786Z,1017.05
2019-01-12T04:16:58.713Z,1017.04
2019-01-12T04:17:58.668Z,1017.04
2019-01-12T04:18:58.598Z,1017.00
2019-01-12T04:19:58.563Z,1016.99
2019-01-12T04:20:58.567Z,1016.99
2019-01-12T04:21:58.516Z,1017.00
2019-01-12T04:22:58.439Z,1016.98
2019-01-12T04:23:58.402Z,1017.00
2019-01-12T04:24:58.352Z,1017.02
2019-01-12T04:25:58.303Z,1017.00
2019-01-12T04:26:58.287Z,1017.03
2019-01-12T04:27:58.222Z,1017.00
2019-01-12T04:28:58.185Z,1017.05
2019-01-12T04:29:58.119Z,1017.05
2019-01-12T04:30:58.066Z,1017.01
2019-01-12T04:31:58.050Z,1016.99
2019-01-12T04:32:58.005Z,1017.02
2019-01-12T04:33:57.958Z,1016.98
2019-01-12T04:34:57.909Z,1017.03
2019-01-12T04:35:57.860Z,1016.95
2019-01-12T04:36:57.879Z,1017.00
2019-01-12T04:37:57.769Z,1016.98
2019-01-12T04:38:57.719Z,1016.97
2019-01-12T04:39:57.676Z,1016.94
2019-01-12T04:40:57.662Z,1016.96
2019-01-12T04:41:57.596Z,1016.95
2019-01-12T04:42:57.585Z,1016.98
2019-01-12T04:43:57.513Z,1017.04
2019-01-12T04:44:57.488Z,1017.01
2019-01-12T04:45:57.419Z,1017.02
2019-01-12T04:46:57.389Z,1016.99
2019-01-12T04:47:57.338Z,1016.99
2019-01-12T04:48:57.318Z,1017.00
2019-01-12T04:49:57.240Z,1017.01
2019-01-12T04:50:57.190Z,1016.97
2019-01-12T04:51:57.152Z,1016.98
2019-01-12T04:52:57.107Z,1016.96
2019-01-12T04:53:57.078Z,1017.00
2019-01-12T04:54:57.048Z,1016.96
2019-01-12T04:55:56.982Z,1016.97
2019-01-12T04:56:56.933Z,1016.93
2019-01-12T04:57:56.886Z,1016.90
2019-01-12T04:58:56.862Z,1016.94
2019-01-12T04:59:56.819Z,1016.96
2019-01-12T05:00:56.765Z,1016.94
2019-01-12T05:01:56.698Z,1016.96
2019-01-12T05:02:56.668Z,1016.90
2019-01-12T05:03:56.636Z,1016.97
2019-01-12T05:04:56.639Z,1016.94
2019-01-12T05:05:56.539Z,1016.94
2019-01-12T05:06:56.485Z,1016.90
2019-01-12T05:07:56.446Z,1016.94
2019-01-12T05:08:56.398Z,1016.95
2019-01-12T05:09:56.354Z,1016.95
2019-01-12T05:10:56.337Z,1016.96
2019-01-12T05:11:56.300Z,1016.97
2019-01-12T05:12:56.228Z,1016.92
2019-01-12T05:13:56.179Z,1016.96
2019-01-12T05:14:56.133Z,1016.97
2019-01-12T05:15:56.133Z,1016.99
2019-01-12T05:16:56.046Z,1016.98
2019-01-12T05:17:56.019Z,1016.93
2019-01-12T05:18:55.972Z,1016.98
2019-01-12T05:19:55.919Z,1016.95
2019-01-12T05:20:55.866Z,1016.96
2019-01-12T05:21:55.856Z,1016.98
2019-01-12T05:22:55.781Z,1016.95
2019-01-12T05:23:55.737Z,1017.00
2019-01-12T05:24:55.712Z,1016.94
2019-01-12T05:25:55.659Z,1016.95
2019-01-12T05:26:55.623Z,1016.99
2019-01-12T05:27:55.562Z,1016.94
2019-01-12T05:28:55.511Z,1016.94
2019-01-12T05:29:55.506Z,1016.96
2019-01-12T05:30:55.443Z,1016.99
2019-01-12T05:31:55.401Z,1016.99
2019-01-12T05:32:55.345Z,1016.96
2019-01-12T05:33:55.309Z,1017.02
2019-01-12T05:34:55.262Z,1016.96
2019-01-12T05:35:55.221Z,1016.94
2019-01-12T05:36:55.182Z,1016.95
2019-01-12T05:37:55.114Z,1016.93
2019-01-12T05:38:55.075Z,1016.95
2019-01-12T05:39:55.035Z,1016.94
2019-01-12T05:40:55.007Z,1016.92
2019-01-12T05:41:54.936Z,1016.92
2019-01-12T05:42:54.906Z,1016.95
2019-01-12T05:43:54.842Z,1016.95
2019-01-12T05:44:54.807Z,1016.99
2019-01-12T05:45:54.788Z,1016.98
2019-01-12T05:46:54.720Z,1017.00
2019-01-12T05:47:54.687Z,1016.98
2019-01-12T05:48:54.633Z,1017.06
2019-01-12T05:49:54.634Z,1017.05
2019-01-12T05:50:54.562Z,1017.06
2019-01-12T05:51:54.494Z,1017.08
2019-01-12T05:52:54.472Z,1017.02
2019-01-12T05:53:54.395Z,1017.00
2019-01-12T05:54:54.385Z,1016.96
2019-01-12T05:55:57.920Z,1016.94
2019-01-12T05:56:54.279Z,1016.94
2019-01-12T05:57:54.238Z,1016.87
2019-01-12T05:58:54.191Z,1016.88
2019-01-12T05:59:54.176Z,1016.87
2019-01-12T06:00:54.133Z,1016.90
2019-01-12T06:01:54.063Z,1016.87
2019-01-12T06:02:54.017Z,1016.86
2019-01-12T06:03:53.970Z,1016.88
2019-01-12T06:04:53.921Z,1016.84
2019-01-12T06:05:53.875Z,1016.84
2019-01-12T06:06:53.847Z,1016.85
2019-01-12T06:07:53.778Z,1016.82
2019-01-12T06:08:53.755Z,1016.84
2019-01-12T06:09:53.709Z,1016.84
2019-01-12T06:10:53.672Z,1016.82
2019-01-12T06:11:53.620Z,1016.83
2019-01-12T06:12:53.619Z,1016.85
2019-01-12T06:13:53.552Z,1016.82
2019-01-12T06:14:53.483Z,1016.84
2019-01-12T06:15:53.447Z,1016.77
2019-01-12T06:16:53.420Z,1016.73
2019-01-12T06:17:53.346Z,1016.75
2019-01-12T06:18:53.305Z,1016.66
2019-01-12T06:19:53.248Z,1016.65
2019-01-12T06:20:53.215Z,1016.60
2019-01-12T06:21:53.185Z,1016.61
2019-01-12T06:22:53.138Z,1016.59
2019-01-12T06:23:53.074Z,1016.58
2019-01-12T06:24:53.028Z,1016.60
2019-01-12T06:25:53.000Z,1016.60
2019-01-12T06:26:52.945Z,1016.63
2019-01-12T06:27:52.923Z,1016.58
2019-01-12T06:28:52.851Z,1016.55
2019-01-12T06:29:52.818Z,1016.56
2019-01-12T06:30:52.772Z,1016.55
2019-01-12T06:32:01.907Z,1016.54
2019-01-12T06:32:52.726Z,1016.56
2019-01-12T06:33:52.624Z,1016.53
2019-01-12T06:34:52.600Z,1016.55
2019-01-12T06:36:02.906Z,1016.55
2019-01-12T06:36:52.508Z,1016.52
2019-01-12T06:37:52.457Z,1016.58
2019-01-12T06:39:01.946Z,1016.58
2019-01-12T06:39:52.361Z,1016.53
2019-01-12T06:40:52.307Z,1016.52
2019-01-12T06:42:02.180Z,1016.54
2019-01-12T06:42:52.241Z,1016.53
2019-01-12T06:43:52.220Z,1016.46
2019-01-12T06:44:52.148Z,1016.45
2019-01-12T06:45:52.107Z,1016.46
2019-01-12T06:46:52.057Z,1016.36
2019-01-12T06:48:01.495Z,1016.37
2019-01-12T06:49:00.548Z,1016.39
2019-01-12T06:49:51.938Z,1016.39
2019-01-12T06:50:51.877Z,1016.40
2019-01-12T06:51:51.824Z,1016.37
2019-01-12T06:52:51.780Z,1016.30
2019-01-12T06:53:51.761Z,1016.29
2019-01-12T06:54:51.723Z,1016.30
2019-01-12T06:55:51.663Z,1016.24
2019-01-12T06:56:51.628Z,1016.30
2019-01-12T06:57:51.586Z,1016.23
2019-01-12T06:58:51.535Z,1016.23
2019-01-12T06:59:51.506Z,1016.31
2019-01-12T07:00:51.452Z,1016.31
2019-01-12T07:01:51.396Z,1016.26
2019-01-12T07:03:01.558Z,1016.21
2019-01-12T07:03:51.301Z,1016.15
2019-01-12T07:05:00.174Z,1016.10
2019-01-12T07:06:00.597Z,1016.09
2019-01-12T07:07:00.621Z,1016.16
2019-01-12T07:07:51.134Z,1016.11
2019-01-12T07:09:00.166Z,1016.08
2019-01-12T07:09:51.060Z,1016.10
2019-01-12T07:10:51.058Z,1016.08
2019-01-12T07:11:50.963Z,1016.12
2019-01-12T07:12:59.475Z,1016.18
2019-01-12T07:13:50.858Z,1016.14
2019-01-12T07:14:50.845Z,1016.16
2019-01-12T07:15:50.820Z,1016.02
2019-01-12T07:16:50.749Z,1016.08
2019-01-12T07:17:50.778Z,1016.08
2019-01-12T07:18:59.707Z,1016.10
2019-01-12T07:19:50.609Z,1016.10
2019-01-12T07:20:50.541Z,1016.08
2019-01-12T07:21:50.531Z,1016.07
2019-01-12T07:22:50.493Z,1016.04
2019-01-12T07:23:50.438Z,1016.09
2019-01-12T07:24:50.390Z,1016.12
2019-01-12T07:25:50.341Z,1016.14
2019-01-12T07:26:50.310Z,1016.17
2019-01-12T07:27:50.244Z,1016.12
2019-01-12T07:28:50.189Z,1016.07
2019-01-12T07:29:50.151Z,1016.08
2019-01-12T07:30:50.120Z,1016.07
2019-01-12T07:31:50.084Z,1016.09
2019-01-12T07:32:50.012Z,1016.04
2019-01-12T07:33:49.968Z,1016.11
2019-01-12T07:35:00.222Z,1016.06
2019-01-12T07:35:59.240Z,1016.01
2019-01-12T07:36:49.841Z,1015.99
2019-01-12T07:37:49.806Z,1015.98
2019-01-12T07:38:49.725Z,1015.92
2019-01-12T07:39:58.768Z,1015.91
2019-01-12T07:40:49.642Z,1015.87
2019-01-12T07:41:49.625Z,1015.84
2019-01-12T07:42:49.551Z,1015.84
2019-01-12T07:43:49.550Z,1015.81
2019-01-12T07:44:49.474Z,1015.83
2019-01-12T07:45:49.484Z,1015.80
2019-01-12T07:46:49.442Z,1015.80
2019-01-12T07:47:49.395Z,1015.80
2019-01-12T07:48:49.315Z,1015.75
2019-01-12T07:49:49.264Z,1015.80
2019-01-12T07:50:49.225Z,1015.74
2019-01-12T07:51:49.171Z,1015.73
2019-01-12T07:52:49.146Z,1015.68
2019-01-12T07:53:49.085Z,1015.74
2019-01-12T07:54:49.296Z,1015.68
2019-01-12T07:55:49.000Z,1015.69
2019-01-12T07:56:48.974Z,1015.64
2019-01-12T07:57:49.048Z,1015.58
2019-01-12T07:58:48.879Z,1015.55
2019-01-12T07:59:48.821Z,1015.60
2019-01-12T08:00:48.765Z,1015.62
2019-01-12T08:01:48.766Z,1015.57
2019-01-12T08:02:57.326Z,1015.61
2019-01-12T08:03:57.814Z,1015.59
2019-01-12T08:04:59.860Z,1015.58
2019-01-12T08:05:56.967Z,1015.56
2019-01-12T08:06:57.971Z,1015.55
2019-01-12T08:07:57.541Z,1015.56
2019-01-12T08:08:59.941Z,1015.55
2019-01-12T08:09:48.366Z,1015.57
2019-01-12T08:10:57.491Z,1015.58
2019-01-12T08:11:57.018Z,1015.55
2019-01-12T08:12:57.515Z,1015.54
2019-01-12T08:13:48.173Z,1015.45
2019-01-12T08:14:48.193Z,1015.54
2019-01-12T08:15:48.090Z,1015.51
2019-01-12T08:16:48.074Z,1015.55
2019-01-12T08:17:48.006Z,1015.48
2019-01-12T08:18:47.977Z,1015.41
2019-01-12T08:19:47.953Z,1015.43
2019-01-12T08:20:47.903Z,1015.45
2019-01-12T08:21:47.843Z,1015.37
2019-01-12T08:22:47.794Z,1015.32
2019-01-12T08:23:47.730Z,1015.34
2019-01-12T08:24:47.737Z,1015.27
2019-01-12T08:25:47.663Z,1015.31
2019-01-12T08:26:47.589Z,1015.27
2019-01-12T08:27:47.571Z,1015.31
2019-01-12T08:28:57.948Z,1015.39
2019-01-12T08:29:57.388Z,1015.34
2019-01-12T08:30:59.029Z,1015.30
2019-01-12T08:31:58.380Z,1015.28
2019-01-12T08:32:56.829Z,1015.23
2019-01-12T08:33:57.792Z,1015.22
2019-01-12T08:34:57.385Z,1015.25
2019-01-12T08:35:57.126Z,1015.24
2019-01-12T08:36:56.954Z,1015.24
2019-01-12T08:37:55.621Z,1015.20
2019-01-12T08:38:56.546Z,1015.17
2019-01-12T08:39:56.498Z,1015.20
2019-01-12T08:40:56.037Z,1015.17
2019-01-12T08:41:56.569Z,1015.18
2019-01-12T08:42:57.134Z,1015.16
2019-01-12T08:43:57.111Z,1015.16
2019-01-12T08:44:46.776Z,1015.21
2019-01-12T08:45:46.769Z,1015.19
2019-01-12T08:46:46.689Z,1015.24
2019-01-12T08:47:46.635Z,1015.26
2019-01-12T08:48:46.606Z,1015.32
2019-01-12T08:49:46.554Z,1015.36
2019-01-12T08:50:46.580Z,1015.41
2019-01-12T08:51:46.493Z,1015.47
2019-01-12T08:52:46.452Z,1015.44
2019-01-12T08:53:46.370Z,1015.48
2019-01-12T08:54:46.338Z,1015.57
2019-01-12T08:55:46.279Z,1015.54
2019-01-12T08:56:46.251Z,1015.43
2019-01-12T08:57:46.201Z,1015.40
2019-01-12T08:58:46.149Z,1015.34
2019-01-12T08:59:46.117Z,1015.26
2019-01-12T09:00:55.781Z,1015.19
2019-01-12T09:01:55.526Z,1015.23
2019-01-12T09:02:55.307Z,1015.23
2019-01-12T09:03:45.924Z,1015.16
2019-01-12T09:04:45.883Z,1015.11
2019-01-12T09:05:46.040Z,1015.11
2019-01-12T09:06:45.814Z,1015.07
2019-01-12T09:07:45.768Z,1015.02
2019-01-12T09:08:45.716Z,1015.01
2019-01-12T09:09:45.656Z,1014.94
2019-01-12T09:10:45.629Z,1014.97
2019-01-12T09:11:45.563Z,1014.96
2019-01-12T09:12:45.545Z,1014.98
2019-01-12T09:13:45.503Z,1014.94
2019-01-12T09:14:45.447Z,1014.97
2019-01-12T09:15:45.439Z,1014.91
2019-01-12T09:16:45.379Z,1014.91
2019-01-12T09:17:45.380Z,1014.87
2019-01-12T09:18:45.307Z,1014.82
2019-01-12T09:19:45.313Z,1014.79
2019-01-12T09:20:45.357Z,1014.78
2019-01-12T09:21:45.162Z,1014.75
2019-01-12T09:22:45.098Z,1014.75
2019-01-12T09:23:45.078Z,1014.74
2019-01-12T09:24:45.035Z,1014.82
2019-01-12T09:25:44.963Z,1014.81
2019-01-12T09:26:45.098Z,1014.77
2019-01-12T09:27:44.870Z,1014.74
2019-01-12T09:28:44.857Z,1014.78
2019-01-12T09:29:44.829Z,1014.80
2019-01-12T09:30:48.479Z,1014.81
2019-01-12T09:31:44.690Z,1014.81
2019-01-12T09:32:44.639Z,1014.83
2019-01-12T09:33:44.593Z,1014.87
2019-01-12T09:34:44.577Z,1014.71
2019-01-12T09:35:44.516Z,1014.78
2019-01-12T09:36:44.496Z,1014.73
2019-01-12T09:37:44.424Z,1014.81
2019-01-12T09:38:44.380Z,1014.76
2019-01-12T09:39:44.357Z,1014.78
2019-01-12T09:40:44.330Z,1014.81
2019-01-12T09:41:44.261Z,1014.78
2019-01-12T09:42:44.230Z,1014.70
2019-01-12T09:43:44.161Z,1014.72
2019-01-12T09:44:44.141Z,1014.70
2019-01-12T09:45:44.090Z,1014.74
2019-01-12T09:46:44.027Z,1014.70
2019-01-12T09:47:43.987Z,1014.62
2019-01-12T09:48:43.949Z,1014.61
2019-01-12T09:49:43.928Z,1014.53
2019-01-12T09:50:43.870Z,1014.55
2019-01-12T09:51:43.831Z,1014.51
2019-01-12T09:52:43.803Z,1014.49
2019-01-12T09:53:43.729Z,1014.53
2019-01-12T09:54:43.700Z,1014.48
2019-01-12T09:55:43.643Z,1014.36
2019-01-12T09:56:43.595Z,1014.46
2019-01-12T09:57:43.576Z,1014.44
2019-01-12T09:58:43.542Z,1014.34
2019-01-12T09:59:43.490Z,1014.31
2019-01-12T10:00:43.440Z,1014.36
2019-01-12T10:01:43.376Z,1014.37
2019-01-12T10:02:43.317Z,1014.35
2019-01-12T10:03:43.325Z,1014.26
2019-01-12T10:04:43.228Z,1014.34
2019-01-12T10:05:43.214Z,1014.37
2019-01-12T10:06:43.163Z,1014.38
2019-01-12T10:07:43.115Z,1014.24
2019-01-12T10:08:43.085Z,1014.18
2019-01-12T10:09:43.028Z,1014.17
2019-01-12T10:10:43.022Z,1014.19
2019-01-12T10:11:42.937Z,1014.20
2019-01-12T10:12:42.914Z,1014.10
2019-01-12T10:13:42.869Z,1014.16
2019-01-12T10:14:42.795Z,1014.04
2019-01-12T10:15:42.780Z,1013.93
2019-01-12T10:16:42.715Z,1013.92
2019-01-12T10:17:42.692Z,1013.90
2019-01-12T10:18:42.658Z,1013.93
2019-01-12T10:19:42.580Z,1013.91
2019-01-12T10:20:42.534Z,1013.89
2019-01-12T10:21:42.522Z,1013.95
2019-01-12T10:22:42.536Z,1013.89
2019-01-12T10:23:42.425Z,1013.84
2019-01-12T10:24:42.416Z,1013.91
2019-01-12T10:25:42.375Z,1013.77
2019-01-12T10:26:42.268Z,1013.87
2019-01-12T10:27:42.236Z,1013.83
2019-01-12T10:28:42.177Z,1013.86
2019-01-12T10:29:42.131Z,1013.84
2019-01-12T10:30:42.147Z,1013.90
2019-01-12T10:31:42.053Z,1013.75
2019-01-12T10:32:42.034Z,1013.78
2019-01-12T10:33:41.968Z,1013.83
2019-01-12T10:34:41.907Z,1013.80
2019-01-12T10:35:41.878Z,1013.86
2019-01-12T10:36:41.829Z,1013.86
2019-01-12T10:37:41.815Z,1013.82
2019-01-12T10:38:41.754Z,1013.86
2019-01-12T10:39:41.705Z,1013.72
2019-01-12T10:40:41.661Z,1013.71
2019-01-12T10:41:41.624Z,1013.67
2019-01-12T10:42:41.579Z,1013.69
2019-01-12T10:43:41.607Z,1013.69
2019-01-12T10:44:41.494Z,1013.73
2019-01-12T10:45:41.447Z,1013.59
2019-01-12T10:46:41.393Z,1013.60
2019-01-12T10:47:41.349Z,1013.56
2019-01-12T10:48:41.328Z,1013.50
2019-01-12T10:49:41.284Z,1013.51
2019-01-12T10:50:41.223Z,1013.45
2019-01-12T10:51:41.183Z,1013.47
2019-01-12T10:52:41.130Z,1013.42
2019-01-12T10:53:41.101Z,1013.44
2019-01-12T10:54:41.058Z,1013.41
2019-01-12T10:55:40.992Z,1013.38
2019-01-12T10:56:40.960Z,1013.30
2019-01-12T10:57:40.906Z,1013.29
2019-01-12T10:58:40.876Z,1013.32
2019-01-12T10:59:40.845Z,1013.35
2019-01-12T11:00:40.789Z,1013.27
2019-01-12T11:01:40.730Z,1013.30
2019-01-12T11:02:40.697Z,1013.21
2019-01-12T11:03:40.689Z,1013.27
2019-01-12T11:04:40.601Z,1013.29
2019-01-12T11:05:40.578Z,1013.25
2019-01-12T11:06:40.515Z,1013.21
2019-01-12T11:07:40.489Z,1013.17
2019-01-12T11:08:40.468Z,1013.16
2019-01-12T11:09:40.393Z,1013.12
2019-01-12T11:10:40.357Z,1013.10
2019-01-12T11:11:40.308Z,1013.00
2019-01-12T11:12:40.268Z,1013.02
2019-01-12T11:13:40.244Z,1013.00
2019-01-12T11:14:40.177Z,1012.92
2019-01-12T11:15:40.145Z,1012.96
2019-01-12T11:16:40.107Z,1012.90
2019-01-12T11:17:40.040Z,1012.96
2019-01-12T11:18:39.989Z,1012.95
2019-01-12T11:19:39.967Z,1012.96
2019-01-12T11:20:39.899Z,1012.97
2019-01-12T11:21:39.873Z,1012.92
2019-01-12T11:22:39.832Z,1012.91
2019-01-12T11:23:39.766Z,1012.90
2019-01-12T11:24:39.726Z,1012.94
2019-01-12T11:25:43.048Z,1012.91
2019-01-12T11:26:39.657Z,1012.85
2019-01-12T11:27:39.623Z,1012.85
2019-01-12T11:28:39.552Z,1012.82
2019-01-12T11:29:39.521Z,1012.87
2019-01-12T11:30:39.474Z,1012.82
2019-01-12T11:31:39.417Z,1012.88
2019-01-12T11:32:39.361Z,1012.89
2019-01-12T11:33:39.389Z,1012.85
2019-01-12T11:34:39.289Z,1012.82
2019-01-12T11:35:39.287Z,1012.77
2019-01-12T11:36:39.217Z,1012.76
2019-01-12T11:37:39.165Z,1012.72
2019-01-12T11:38:39.126Z,1012.70
2019-01-12T11:39:39.158Z,1012.66
2019-01-12T11:40:39.024Z,1012.54
2019-01-12T11:41:39.099Z,1012.57
2019-01-12T11:42:38.940Z,1012.53
2019-01-12T11:43:39.061Z,1012.55
2019-01-12T11:44:38.867Z,1012.52
2019-01-12T11:45:38.812Z,1012.43
2019-01-12T11:46:38.772Z,1012.44
2019-01-12T11:47:38.756Z,1012.34
2019-01-12T11:48:38.710Z,1012.39
2019-01-12T11:49:38.636Z,1012.39
2019-01-12T11:50:38.573Z,1012.43
2019-01-12T11:51:38.562Z,1012.37
2019-01-12T11:52:38.525Z,1012.33
2019-01-12T11:53:38.447Z,1012.30
2019-01-12T11:54:38.751Z,1012.25
2019-01-12T11:55:38.412Z,1012.22
2019-01-12T11:56:38.348Z,1012.22
2019-01-12T11:57:38.304Z,1012.19
2019-01-12T11:58:38.217Z,1012.11
2019-01-12T11:59:38.199Z,1012.08
2019-01-12T12:00:38.144Z,1012.07
2019-01-12T12:01:38.140Z,1012.05
2019-01-12T12:02:38.053Z,1012.04
2019-01-12T12:03:38.029Z,1011.96
2019-01-12T12:04:37.964Z,1011.91